LOT5HA EPWA-UACC
Flight info
| Callsign | LOT5HA |
|---|---|
| Flight time | 5h 46m |
| Altitude | 35000 |
| Route | EVINA DCT KUKAM DCT BABKO DCT KARIL DCT UDROS UN743 GAKSU DCT ROLIN N644 LAGAS M747 SUBUT T916 BALUN/K0857F350 N55 OGANU P574 VETUB |
| Aircraft | B38M/M-SDE1FGHILORVWXY/HB1 |
Departure
| Time | 2026-04-23 23:10 |
|---|---|
| Airport | Warsaw Chopin Airport (EPWA) |
Arrival
| Time | 2026-04-24 04:56 |
|---|---|
| Airport | Nursultan Nazarbayev International Airport (UACC) |
| Time | Latitude | Longitude | Altitude | Speed | Heading |
|---|---|---|---|---|---|
| 2026-04-23 22:48 | 52.17335 | 20.96846 | 341 ft | 0 kts | 62° |
| 2026-04-23 23:01 | 52.17332 | 20.96835 | 341 ft | 4 kts | 62° |
| 2026-04-23 23:01 | 52.17319 | 20.96797 | 336 ft | 4 kts | 62° |
| 2026-04-23 23:01 | 52.17308 | 20.96765 | 338 ft | 4 kts | 65° |
| 2026-04-23 23:02 | 52.17304 | 20.96726 | 341 ft | 4 kts | 108° |
| 2026-04-23 23:02 | 52.17318 | 20.96699 | 337 ft | 3 kts | 152° |
| 2026-04-23 23:02 | 52.17332 | 20.96686 | 336 ft | 0 kts | 152° |
| 2026-04-23 23:05 | 52.17332 | 20.96687 | 336 ft | 0 kts | 152° |
| 2026-04-23 23:05 | 52.17305 | 20.96711 | 337 ft | 11 kts | 152° |
| 2026-04-23 23:05 | 52.17199 | 20.96804 | 341 ft | 22 kts | 150° |
| 2026-04-23 23:06 | 52.17077 | 20.96912 | 337 ft | 20 kts | 152° |
| 2026-04-23 23:06 | 52.16966 | 20.97008 | 337 ft | 19 kts | 151° |
| 2026-04-23 23:06 | 52.16849 | 20.97110 | 341 ft | 20 kts | 152° |
| 2026-04-23 23:06 | 52.16729 | 20.97216 | 341 ft | 18 kts | 151° |
| 2026-04-23 23:07 | 52.16617 | 20.97313 | 337 ft | 19 kts | 149° |
| 2026-04-23 23:07 | 52.16542 | 20.97487 | 340 ft | 20 kts | 115° |
| 2026-04-23 23:07 | 52.16495 | 20.97656 | 340 ft | 16 kts | 114° |
| 2026-04-23 23:07 | 52.16456 | 20.97782 | 337 ft | 12 kts | 131° |
| 2026-04-23 23:08 | 52.16396 | 20.97792 | 337 ft | 0 kts | 207° |
| 2026-04-23 23:08 | 52.16390 | 20.97787 | 351 ft | 2 kts | 207° |
| 2026-04-23 23:08 | 52.16373 | 20.97773 | 344 ft | 4 kts | 208° |
| 2026-04-23 23:08 | 52.16335 | 20.97740 | 337 ft | 8 kts | 208° |
| 2026-04-23 23:09 | 52.16311 | 20.97650 | 340 ft | 11 kts | 288° |
| 2026-04-23 23:09 | 52.16325 | 20.97597 | 340 ft | 25 kts | 294° |
| 2026-04-23 23:09 | 52.16511 | 20.96938 | 337 ft | 101 kts | 294° |
| 2026-04-23 23:09 | 52.16900 | 20.95560 | 377 ft | 157 kts | 294° |
| 2026-04-23 23:10 | 52.17376 | 20.93887 | 1002 ft | 167 kts | 295° |
| 2026-04-23 23:10 | 52.17841 | 20.92173 | 1998 ft | 162 kts | 300° |
| 2026-04-23 23:10 | 52.18241 | 20.90441 | 2680 ft | 175 kts | 292° |
| 2026-04-23 23:10 | 52.18341 | 20.88291 | 3004 ft | 208 kts | 270° |
| 2026-04-23 23:11 | 52.17983 | 20.85796 | 3292 ft | 241 kts | 263° |
| 2026-04-23 23:11 | 52.17559 | 20.83153 | 4157 ft | 243 kts | 263° |
| 2026-04-23 23:11 | 52.16948 | 20.80457 | 4704 ft | 272 kts | 242° |
| 2026-04-23 23:11 | 52.15477 | 20.78455 | 5561 ft | 285 kts | 208° |
| 2026-04-23 23:12 | 52.13562 | 20.77407 | 6454 ft | 292 kts | 201° |
| 2026-04-23 23:12 | 52.11615 | 20.76362 | 7263 ft | 295 kts | 202° |
| 2026-04-23 23:12 | 52.09655 | 20.75298 | 8049 ft | 300 kts | 202° |
| 2026-04-23 23:12 | 52.07666 | 20.74214 | 8860 ft | 303 kts | 202° |
| 2026-04-23 23:13 | 52.05672 | 20.73126 | 9641 ft | 308 kts | 202° |
| 2026-04-23 23:13 | 52.03624 | 20.72009 | 10335 ft | 315 kts | 202° |
| 2026-04-23 23:13 | 52.01490 | 20.70834 | 10651 ft | 334 kts | 202° |
| 2026-04-23 23:13 | 51.99224 | 20.69579 | 10905 ft | 353 kts | 201° |
| 2026-04-23 23:14 | 51.96832 | 20.68255 | 11141 ft | 373 kts | 201° |
| 2026-04-23 23:14 | 51.94330 | 20.66872 | 11471 ft | 387 kts | 201° |
| 2026-04-23 23:14 | 51.91759 | 20.65462 | 12042 ft | 391 kts | 201° |
| 2026-04-23 23:14 | 51.89164 | 20.64054 | 12662 ft | 396 kts | 201° |
| 2026-04-23 23:15 | 51.86542 | 20.62633 | 13279 ft | 399 kts | 201° |
| 2026-04-23 23:15 | 51.83898 | 20.61206 | 13869 ft | 403 kts | 201° |
| 2026-04-23 23:15 | 51.81220 | 20.59762 | 14369 ft | 407 kts | 201° |
| 2026-04-23 23:15 | 51.78516 | 20.58305 | 14863 ft | 411 kts | 201° |
| 2026-04-23 23:16 | 51.75787 | 20.56837 | 15349 ft | 415 kts | 200° |
| 2026-04-23 23:16 | 51.73034 | 20.55357 | 15828 ft | 419 kts | 200° |
| 2026-04-23 23:16 | 51.70258 | 20.53866 | 16310 ft | 422 kts | 200° |
| 2026-04-23 23:16 | 51.67455 | 20.52364 | 16792 ft | 426 kts | 200° |
| 2026-04-23 23:17 | 51.64636 | 20.50855 | 17250 ft | 429 kts | 200° |
| 2026-04-23 23:17 | 51.61786 | 20.49332 | 17701 ft | 432 kts | 200° |
| 2026-04-23 23:17 | 51.59891 | 20.48320 | 18004 ft | 434 kts | 200° |
| 2026-04-23 23:17 | 51.57014 | 20.46785 | 18427 ft | 437 kts | 200° |
| 2026-04-23 23:18 | 51.54115 | 20.45241 | 18815 ft | 440 kts | 200° |
| 2026-04-23 23:18 | 51.51200 | 20.43691 | 19201 ft | 442 kts | 200° |
| 2026-04-23 23:18 | 51.48272 | 20.42135 | 19572 ft | 445 kts | 200° |
| 2026-04-23 23:18 | 51.45318 | 20.40569 | 19940 ft | 447 kts | 199° |
| 2026-04-23 23:19 | 51.42353 | 20.38998 | 20306 ft | 450 kts | 199° |
| 2026-04-23 23:19 | 51.39371 | 20.37421 | 20661 ft | 453 kts | 199° |
| 2026-04-23 23:19 | 51.36370 | 20.35836 | 21023 ft | 455 kts | 199° |
| 2026-04-23 23:19 | 51.33354 | 20.34246 | 21377 ft | 458 kts | 199° |
| 2026-04-23 23:20 | 51.30320 | 20.32648 | 21734 ft | 461 kts | 199° |
| 2026-04-23 23:20 | 51.27262 | 20.31039 | 22093 ft | 464 kts | 199° |
| 2026-04-23 23:20 | 51.24185 | 20.29423 | 22452 ft | 467 kts | 198° |
| 2026-04-23 23:20 | 51.21121 | 20.27817 | 22812 ft | 470 kts | 198° |
| 2026-04-23 23:21 | 51.18004 | 20.26184 | 23175 ft | 473 kts | 198° |
| 2026-04-23 23:21 | 51.14866 | 20.24544 | 23536 ft | 476 kts | 198° |
| 2026-04-23 23:21 | 51.11711 | 20.22895 | 23854 ft | 479 kts | 198° |
| 2026-04-23 23:21 | 51.08536 | 20.21239 | 24195 ft | 481 kts | 198° |
| 2026-04-23 23:22 | 51.05350 | 20.19580 | 24522 ft | 483 kts | 198° |
| 2026-04-23 23:22 | 51.02146 | 20.17915 | 24866 ft | 486 kts | 198° |
| 2026-04-23 23:22 | 50.98924 | 20.16242 | 25207 ft | 488 kts | 197° |
| 2026-04-23 23:22 | 50.95680 | 20.14560 | 25551 ft | 491 kts | 197° |
| 2026-04-23 23:23 | 50.92428 | 20.12877 | 25889 ft | 493 kts | 197° |
| 2026-04-23 23:23 | 50.89150 | 20.11183 | 26216 ft | 496 kts | 197° |
| 2026-04-23 23:23 | 50.85859 | 20.09484 | 26553 ft | 498 kts | 197° |
| 2026-04-23 23:23 | 50.82561 | 20.07785 | 26892 ft | 500 kts | 197° |
| 2026-04-23 23:24 | 50.79241 | 20.06076 | 27220 ft | 502 kts | 197° |
| 2026-04-23 23:24 | 50.75914 | 20.04367 | 27531 ft | 504 kts | 197° |
| 2026-04-23 23:24 | 50.72566 | 20.02650 | 27856 ft | 506 kts | 197° |
| 2026-04-23 23:24 | 50.69211 | 20.00931 | 28168 ft | 509 kts | 197° |
| 2026-04-23 23:25 | 50.65840 | 19.99207 | 28465 ft | 511 kts | 197° |
| 2026-04-23 23:25 | 50.62448 | 19.97475 | 28768 ft | 513 kts | 196° |
| 2026-04-23 23:25 | 50.59049 | 19.95742 | 29068 ft | 515 kts | 196° |
| 2026-04-23 23:25 | 50.55636 | 19.94005 | 29388 ft | 516 kts | 196° |
| 2026-04-23 23:26 | 50.52219 | 19.92269 | 29792 ft | 515 kts | 196° |
| 2026-04-23 23:26 | 50.48811 | 19.90542 | 30187 ft | 515 kts | 196° |
| 2026-04-23 23:26 | 50.45397 | 19.88814 | 30516 ft | 514 kts | 196° |
| 2026-04-23 23:26 | 50.41993 | 19.87093 | 30835 ft | 514 kts | 196° |
| 2026-04-23 23:27 | 50.38588 | 19.85373 | 31124 ft | 515 kts | 196° |
| 2026-04-23 23:27 | 50.35821 | 19.83978 | 31378 ft | 514 kts | 195° |
| 2026-04-23 23:27 | 50.32921 | 19.82517 | 31646 ft | 514 kts | 195° |
| 2026-04-23 23:27 | 50.29519 | 19.80806 | 31949 ft | 514 kts | 195° |
| 2026-04-23 23:28 | 50.26152 | 19.79115 | 32237 ft | 514 kts | 195° |
| 2026-04-23 23:28 | 50.22748 | 19.77408 | 32516 ft | 515 kts | 195° |
| 2026-04-23 23:28 | 50.19334 | 19.75698 | 32831 ft | 514 kts | 195° |
| 2026-04-23 23:28 | 50.15928 | 19.73996 | 33100 ft | 515 kts | 195° |
| 2026-04-23 23:29 | 50.12524 | 19.72295 | 33376 ft | 515 kts | 195° |
| 2026-04-23 23:29 | 50.09109 | 19.70592 | 33657 ft | 515 kts | 195° |
| 2026-04-23 23:29 | 50.05699 | 19.68895 | 33937 ft | 514 kts | 195° |
| 2026-04-23 23:29 | 50.02294 | 19.67201 | 34196 ft | 514 kts | 195° |
| 2026-04-23 23:30 | 49.98883 | 19.65507 | 34457 ft | 513 kts | 195° |
| 2026-04-23 23:30 | 49.95491 | 19.63825 | 34715 ft | 512 kts | 195° |
| 2026-04-23 23:30 | 49.92093 | 19.62143 | 34977 ft | 511 kts | 195° |
| 2026-04-23 23:31 | 49.85306 | 19.58791 | 35046 ft | 510 kts | 195° |
| 2026-04-23 23:31 | 49.78560 | 19.55468 | 35063 ft | 509 kts | 195° |
| 2026-04-23 23:32 | 49.71818 | 19.52169 | 35056 ft | 508 kts | 193° |
| 2026-04-23 23:32 | 49.68363 | 19.51273 | 35052 ft | 499 kts | 178° |
| 2026-04-23 23:32 | 49.64911 | 19.51578 | 34871 ft | 497 kts | 166° |
| 2026-04-23 23:32 | 49.61941 | 19.52732 | 35077 ft | 490 kts | 157° |
| 2026-04-23 23:33 | 49.58790 | 19.54700 | 35079 ft | 490 kts | 150° |
| 2026-04-23 23:33 | 49.55855 | 19.57309 | 35042 ft | 484 kts | 135° |
| 2026-04-23 23:33 | 49.53425 | 19.60823 | 35077 ft | 478 kts | 127° |
| 2026-04-23 23:34 | 49.48838 | 19.68332 | 35067 ft | 484 kts | 126° |
| 2026-04-23 23:34 | 49.44284 | 19.76045 | 35070 ft | 488 kts | 125° |
| 2026-04-23 23:35 | 49.39741 | 19.83808 | 35065 ft | 488 kts | 125° |
| 2026-04-23 23:35 | 49.35200 | 19.91553 | 35059 ft | 488 kts | 125° |
| 2026-04-23 23:36 | 49.30661 | 19.99276 | 35035 ft | 488 kts | 125° |
| 2026-04-23 23:36 | 49.26138 | 20.06943 | 35029 ft | 488 kts | 125° |
| 2026-04-23 23:37 | 49.21574 | 20.14658 | 35016 ft | 488 kts | 125° |
| 2026-04-23 23:37 | 49.17005 | 20.22362 | 35005 ft | 489 kts | 126° |
| 2026-04-23 23:38 | 49.12428 | 20.30054 | 34989 ft | 489 kts | 126° |
| 2026-04-23 23:38 | 49.07860 | 20.37705 | 35000 ft | 491 kts | 126° |
| 2026-04-23 23:39 | 49.03257 | 20.45395 | 35007 ft | 491 kts | 126° |
| 2026-04-23 23:39 | 48.98638 | 20.53087 | 35012 ft | 492 kts | 126° |
| 2026-04-23 23:40 | 48.94017 | 20.60759 | 35004 ft | 492 kts | 126° |
| 2026-04-23 23:40 | 48.89392 | 20.68417 | 35017 ft | 492 kts | 126° |
| 2026-04-23 23:41 | 48.84762 | 20.76062 | 35010 ft | 491 kts | 126° |
| 2026-04-23 23:41 | 48.80130 | 20.83686 | 35001 ft | 491 kts | 126° |
| 2026-04-23 23:42 | 48.75495 | 20.91295 | 34993 ft | 491 kts | 126° |
| 2026-04-23 23:42 | 48.70857 | 20.98885 | 35001 ft | 491 kts | 126° |
| 2026-04-23 23:43 | 48.66213 | 21.06462 | 34998 ft | 491 kts | 126° |
| 2026-04-23 23:43 | 48.61564 | 21.14026 | 34997 ft | 491 kts | 126° |
| 2026-04-23 23:44 | 48.56936 | 21.21534 | 34997 ft | 491 kts | 126° |
| 2026-04-23 23:44 | 48.52251 | 21.29114 | 35000 ft | 491 kts | 127° |
| 2026-04-23 23:45 | 48.47592 | 21.36627 | 34998 ft | 491 kts | 127° |
| 2026-04-23 23:45 | 48.42929 | 21.44129 | 34997 ft | 491 kts | 127° |
| 2026-04-23 23:46 | 48.38287 | 21.51571 | 34986 ft | 491 kts | 127° |
| 2026-04-23 23:46 | 48.33609 | 21.59053 | 34998 ft | 491 kts | 127° |
| 2026-04-23 23:47 | 48.28922 | 21.66525 | 34997 ft | 491 kts | 127° |
| 2026-04-23 23:47 | 48.24236 | 21.73976 | 34998 ft | 491 kts | 127° |
| 2026-04-23 23:48 | 48.19545 | 21.81412 | 34996 ft | 491 kts | 127° |
| 2026-04-23 23:48 | 48.14841 | 21.88848 | 34993 ft | 491 kts | 127° |
| 2026-04-23 23:49 | 48.07823 | 21.99905 | 34995 ft | 491 kts | 128° |
| 2026-04-23 23:49 | 48.03111 | 22.07300 | 34992 ft | 491 kts | 128° |
| 2026-04-23 23:50 | 47.98397 | 22.14679 | 34993 ft | 491 kts | 128° |
| 2026-04-23 23:50 | 47.93677 | 22.22050 | 34994 ft | 491 kts | 128° |
| 2026-04-23 23:51 | 47.88960 | 22.29397 | 34991 ft | 491 kts | 128° |
| 2026-04-23 23:51 | 47.84234 | 22.36738 | 34993 ft | 491 kts | 128° |
| 2026-04-23 23:52 | 47.79530 | 22.44097 | 34984 ft | 488 kts | 124° |
| 2026-04-23 23:52 | 47.75279 | 22.51937 | 34986 ft | 487 kts | 122° |
| 2026-04-23 23:53 | 47.71093 | 22.59750 | 34979 ft | 486 kts | 122° |
| 2026-04-23 23:53 | 47.66877 | 22.67605 | 34976 ft | 487 kts | 122° |
| 2026-04-23 23:54 | 47.62647 | 22.75467 | 34976 ft | 487 kts | 123° |
| 2026-04-23 23:54 | 47.58408 | 22.83320 | 34971 ft | 487 kts | 123° |
| 2026-04-23 23:55 | 47.54172 | 22.91146 | 34980 ft | 487 kts | 123° |
| 2026-04-23 23:55 | 47.49929 | 22.98963 | 34988 ft | 487 kts | 123° |
| 2026-04-23 23:56 | 47.45674 | 23.06780 | 34987 ft | 488 kts | 123° |
| 2026-04-23 23:56 | 47.41435 | 23.14544 | 34992 ft | 488 kts | 123° |
| 2026-04-23 23:57 | 47.37171 | 23.22333 | 35002 ft | 488 kts | 123° |
| 2026-04-23 23:57 | 47.32898 | 23.30115 | 34997 ft | 488 kts | 123° |
| 2026-04-23 23:58 | 47.28622 | 23.37879 | 34999 ft | 488 kts | 123° |
| 2026-04-23 23:58 | 47.24341 | 23.45632 | 35008 ft | 488 kts | 123° |
| 2026-04-23 23:59 | 47.20059 | 23.53366 | 34996 ft | 488 kts | 124° |
| 2026-04-23 23:59 | 47.15768 | 23.61093 | 34996 ft | 488 kts | 124° |
| 2026-04-24 00:00 | 47.11496 | 23.68762 | 34990 ft | 488 kts | 124° |
| 2026-04-24 00:00 | 47.07197 | 23.76460 | 34980 ft | 488 kts | 124° |
| 2026-04-24 00:01 | 47.02888 | 23.84154 | 34986 ft | 488 kts | 124° |
| 2026-04-24 00:01 | 46.98570 | 23.91843 | 34985 ft | 488 kts | 124° |
| 2026-04-24 00:02 | 46.94254 | 23.99507 | 34981 ft | 488 kts | 124° |
| 2026-04-24 00:02 | 46.89921 | 24.07179 | 34979 ft | 489 kts | 124° |
| 2026-04-24 00:03 | 46.85591 | 24.14825 | 34984 ft | 489 kts | 124° |
| 2026-04-24 00:03 | 46.81247 | 24.22472 | 34983 ft | 489 kts | 124° |
| 2026-04-24 00:04 | 46.77639 | 24.28810 | 34976 ft | 489 kts | 124° |
| 2026-04-24 00:04 | 46.73285 | 24.36436 | 34970 ft | 489 kts | 125° |
| 2026-04-24 00:05 | 46.68930 | 24.44046 | 34963 ft | 489 kts | 125° |
| 2026-04-24 00:05 | 46.64558 | 24.51662 | 34956 ft | 489 kts | 125° |
| 2026-04-24 00:06 | 46.60193 | 24.59245 | 34956 ft | 489 kts | 125° |
| 2026-04-24 00:06 | 46.55849 | 24.66771 | 34955 ft | 489 kts | 125° |
| 2026-04-24 00:07 | 46.51467 | 24.74342 | 34963 ft | 489 kts | 125° |
| 2026-04-24 00:07 | 46.47085 | 24.81892 | 34970 ft | 489 kts | 125° |
| 2026-04-24 00:08 | 46.42698 | 24.89432 | 34976 ft | 489 kts | 126° |
| 2026-04-24 00:08 | 46.38308 | 24.96954 | 34989 ft | 489 kts | 126° |
| 2026-04-24 00:09 | 46.33910 | 25.04469 | 34979 ft | 488 kts | 126° |
| 2026-04-24 00:09 | 46.29509 | 25.11971 | 34987 ft | 489 kts | 126° |
| 2026-04-24 00:10 | 46.25137 | 25.19401 | 34988 ft | 488 kts | 126° |
| 2026-04-24 00:10 | 46.20727 | 25.26876 | 34978 ft | 488 kts | 126° |
| 2026-04-24 00:11 | 46.16320 | 25.34328 | 34974 ft | 489 kts | 126° |
| 2026-04-24 00:11 | 46.11900 | 25.41779 | 34978 ft | 488 kts | 126° |
| 2026-04-24 00:12 | 46.07483 | 25.49206 | 34978 ft | 488 kts | 126° |
| 2026-04-24 00:12 | 46.03059 | 25.56625 | 34975 ft | 488 kts | 126° |
| 2026-04-24 00:13 | 45.98631 | 25.64030 | 34964 ft | 488 kts | 126° |
| 2026-04-24 00:13 | 45.94202 | 25.71417 | 34965 ft | 488 kts | 127° |
| 2026-04-24 00:14 | 45.89763 | 25.78801 | 34963 ft | 488 kts | 127° |
| 2026-04-24 00:14 | 45.85324 | 25.86166 | 34961 ft | 488 kts | 127° |
| 2026-04-24 00:15 | 45.80883 | 25.93515 | 34963 ft | 488 kts | 127° |
| 2026-04-24 00:15 | 45.76461 | 26.00813 | 34969 ft | 487 kts | 127° |
| 2026-04-24 00:16 | 45.72014 | 26.08132 | 34963 ft | 487 kts | 127° |
| 2026-04-24 00:16 | 45.67557 | 26.15449 | 34960 ft | 487 kts | 127° |
| 2026-04-24 00:17 | 45.63096 | 26.22753 | 34959 ft | 488 kts | 127° |
| 2026-04-24 00:17 | 45.58606 | 26.30085 | 34957 ft | 489 kts | 127° |
| 2026-04-24 00:18 | 45.54117 | 26.37394 | 34968 ft | 491 kts | 127° |
| 2026-04-24 00:18 | 45.49632 | 26.44680 | 34948 ft | 492 kts | 127° |
| 2026-04-24 00:19 | 45.45107 | 26.52011 | 34946 ft | 492 kts | 127° |
| 2026-04-24 00:19 | 45.40549 | 26.59376 | 34943 ft | 493 kts | 127° |
| 2026-04-24 00:20 | 45.36031 | 26.66657 | 34931 ft | 493 kts | 127° |
| 2026-04-24 00:20 | 45.31490 | 26.73955 | 34928 ft | 492 kts | 128° |
| 2026-04-24 00:21 | 45.26952 | 26.81230 | 34920 ft | 492 kts | 128° |
| 2026-04-24 00:21 | 45.22412 | 26.88489 | 34921 ft | 491 kts | 128° |
| 2026-04-24 00:22 | 45.17863 | 26.95743 | 34918 ft | 491 kts | 128° |
| 2026-04-24 00:22 | 45.13320 | 27.02969 | 34913 ft | 491 kts | 128° |
| 2026-04-24 00:23 | 45.08805 | 27.10132 | 34915 ft | 490 kts | 128° |
| 2026-04-24 00:23 | 45.04261 | 27.17323 | 34907 ft | 489 kts | 128° |
| 2026-04-24 00:24 | 44.99715 | 27.24498 | 34909 ft | 489 kts | 129° |
| 2026-04-24 00:24 | 44.95172 | 27.31649 | 34914 ft | 489 kts | 129° |
| 2026-04-24 00:25 | 44.90629 | 27.38784 | 34911 ft | 488 kts | 129° |
| 2026-04-24 00:25 | 44.86110 | 27.45861 | 34912 ft | 488 kts | 129° |
| 2026-04-24 00:26 | 44.81562 | 27.52967 | 34914 ft | 488 kts | 129° |
| 2026-04-24 00:26 | 44.77014 | 27.60053 | 34914 ft | 488 kts | 129° |
| 2026-04-24 00:27 | 44.72456 | 27.67138 | 34908 ft | 488 kts | 129° |
| 2026-04-24 00:27 | 44.67895 | 27.74211 | 34912 ft | 488 kts | 129° |
| 2026-04-24 00:28 | 44.63356 | 27.81230 | 34912 ft | 488 kts | 130° |
| 2026-04-24 00:28 | 44.58788 | 27.88277 | 34911 ft | 488 kts | 130° |
| 2026-04-24 00:29 | 44.54215 | 27.95313 | 34913 ft | 488 kts | 130° |
| 2026-04-24 00:29 | 44.49643 | 28.02331 | 34915 ft | 488 kts | 130° |
| 2026-04-24 00:30 | 44.45060 | 28.09348 | 34912 ft | 488 kts | 130° |
| 2026-04-24 00:30 | 44.40476 | 28.16349 | 34914 ft | 488 kts | 130° |
| 2026-04-24 00:31 | 44.35885 | 28.23341 | 34911 ft | 488 kts | 130° |
| 2026-04-24 00:31 | 44.31290 | 28.30324 | 34915 ft | 488 kts | 130° |
| 2026-04-24 00:32 | 44.26695 | 28.37290 | 34913 ft | 488 kts | 130° |
| 2026-04-24 00:32 | 44.22092 | 28.44250 | 34913 ft | 488 kts | 130° |
| 2026-04-24 00:33 | 44.17511 | 28.51159 | 34911 ft | 488 kts | 130° |
| 2026-04-24 00:33 | 44.12897 | 28.58101 | 34908 ft | 488 kts | 131° |
| 2026-04-24 00:34 | 44.08285 | 28.65024 | 34910 ft | 488 kts | 131° |
| 2026-04-24 00:34 | 44.03665 | 28.71941 | 34905 ft | 488 kts | 131° |
| 2026-04-24 00:35 | 43.99040 | 28.78848 | 34912 ft | 488 kts | 131° |
| 2026-04-24 00:35 | 43.94403 | 28.85756 | 34910 ft | 488 kts | 131° |
| 2026-04-24 00:36 | 43.89765 | 28.92650 | 34906 ft | 488 kts | 131° |
| 2026-04-24 00:36 | 43.85155 | 28.99484 | 34907 ft | 488 kts | 131° |
| 2026-04-24 00:37 | 43.80513 | 29.06349 | 34909 ft | 488 kts | 131° |
| 2026-04-24 00:37 | 43.75863 | 29.13210 | 34907 ft | 488 kts | 131° |
| 2026-04-24 00:38 | 43.71213 | 29.20054 | 34903 ft | 488 kts | 131° |
| 2026-04-24 00:38 | 43.66554 | 29.26894 | 34908 ft | 488 kts | 132° |
| 2026-04-24 00:39 | 43.61888 | 29.33728 | 34907 ft | 488 kts | 132° |
| 2026-04-24 00:39 | 43.57258 | 29.40493 | 34904 ft | 488 kts | 132° |
| 2026-04-24 00:40 | 43.52592 | 29.47294 | 34904 ft | 488 kts | 132° |
| 2026-04-24 00:40 | 43.47920 | 29.54087 | 34903 ft | 488 kts | 132° |
| 2026-04-24 00:41 | 43.43248 | 29.60864 | 34906 ft | 488 kts | 133° |
| 2026-04-24 00:41 | 43.38571 | 29.67633 | 34910 ft | 488 kts | 133° |
| 2026-04-24 00:42 | 43.33889 | 29.74392 | 34905 ft | 488 kts | 133° |
| 2026-04-24 00:42 | 43.29200 | 29.81145 | 34908 ft | 488 kts | 133° |
| 2026-04-24 00:43 | 43.24512 | 29.87883 | 34909 ft | 488 kts | 133° |
| 2026-04-24 00:43 | 43.19846 | 29.94575 | 34910 ft | 488 kts | 133° |
| 2026-04-24 00:44 | 43.15148 | 30.01298 | 34908 ft | 487 kts | 133° |
| 2026-04-24 00:44 | 43.10453 | 30.08001 | 34909 ft | 487 kts | 133° |
| 2026-04-24 00:45 | 43.05753 | 30.14694 | 34910 ft | 487 kts | 133° |
| 2026-04-24 00:45 | 43.01053 | 30.21373 | 34916 ft | 488 kts | 134° |
| 2026-04-24 00:46 | 42.96343 | 30.28052 | 34915 ft | 488 kts | 134° |
| 2026-04-24 00:46 | 42.91658 | 30.34678 | 34916 ft | 488 kts | 134° |
| 2026-04-24 00:47 | 42.86942 | 30.41334 | 34916 ft | 487 kts | 134° |
| 2026-04-24 00:47 | 42.82226 | 30.47973 | 34916 ft | 487 kts | 134° |
| 2026-04-24 00:48 | 42.77501 | 30.54612 | 34920 ft | 487 kts | 134° |
| 2026-04-24 00:48 | 42.75371 | 30.58184 | 34913 ft | 485 kts | 121° |
| 2026-04-24 00:48 | 42.73827 | 30.62246 | 34932 ft | 484 kts | 111° |
| 2026-04-24 00:49 | 42.72744 | 30.66583 | 34910 ft | 482 kts | 99° |
| 2026-04-24 00:49 | 42.72426 | 30.71089 | 34934 ft | 478 kts | 89° |
| 2026-04-24 00:49 | 42.71847 | 30.80081 | 34930 ft | 483 kts | 96° |
| 2026-04-24 00:50 | 42.70900 | 30.89130 | 34923 ft | 483 kts | 96° |
| 2026-04-24 00:50 | 42.69965 | 30.98184 | 34927 ft | 483 kts | 96° |
| 2026-04-24 00:51 | 42.69183 | 31.05703 | 34926 ft | 483 kts | 96° |
| 2026-04-24 00:51 | 42.68235 | 31.14769 | 34929 ft | 483 kts | 96° |
| 2026-04-24 00:52 | 42.67279 | 31.23820 | 34929 ft | 483 kts | 96° |
| 2026-04-24 00:52 | 42.66317 | 31.32873 | 34933 ft | 484 kts | 97° |
| 2026-04-24 00:53 | 42.65347 | 31.41922 | 34934 ft | 484 kts | 97° |
| 2026-04-24 00:53 | 42.64371 | 31.50966 | 34936 ft | 485 kts | 97° |
| 2026-04-24 00:54 | 42.63385 | 31.60028 | 34933 ft | 485 kts | 97° |
| 2026-04-24 00:54 | 42.62399 | 31.69021 | 34933 ft | 485 kts | 97° |
| 2026-04-24 00:55 | 42.61398 | 31.78084 | 34938 ft | 485 kts | 97° |
| 2026-04-24 00:55 | 42.60390 | 31.87145 | 34938 ft | 485 kts | 97° |
| 2026-04-24 00:56 | 42.59377 | 31.96204 | 34937 ft | 485 kts | 98° |
| 2026-04-24 00:56 | 42.58355 | 32.05258 | 34935 ft | 486 kts | 98° |
| 2026-04-24 00:57 | 42.57325 | 32.14321 | 34945 ft | 486 kts | 98° |
| 2026-04-24 00:58 | 42.55767 | 32.27921 | 34939 ft | 487 kts | 98° |
| 2026-04-24 00:58 | 42.54718 | 32.36996 | 34941 ft | 487 kts | 98° |
| 2026-04-24 00:59 | 42.53659 | 32.46088 | 34941 ft | 488 kts | 98° |
| 2026-04-24 00:59 | 42.52599 | 32.55129 | 34941 ft | 488 kts | 98° |
| 2026-04-24 01:00 | 42.51525 | 32.64224 | 34949 ft | 489 kts | 99° |
| 2026-04-24 01:00 | 42.50442 | 32.73328 | 34943 ft | 490 kts | 99° |
| 2026-04-24 01:01 | 42.49351 | 32.82439 | 34943 ft | 490 kts | 99° |
| 2026-04-24 01:01 | 42.48249 | 32.91574 | 34938 ft | 491 kts | 99° |
| 2026-04-24 01:02 | 42.47141 | 33.00704 | 34931 ft | 491 kts | 99° |
| 2026-04-24 01:02 | 42.46025 | 33.09843 | 34943 ft | 493 kts | 99° |
| 2026-04-24 01:03 | 42.44893 | 33.19000 | 34941 ft | 493 kts | 99° |
| 2026-04-24 01:03 | 42.43754 | 33.28169 | 34939 ft | 494 kts | 100° |
| 2026-04-24 01:04 | 42.42607 | 33.37336 | 34941 ft | 494 kts | 100° |
| 2026-04-24 01:04 | 42.41452 | 33.46517 | 34937 ft | 495 kts | 100° |
| 2026-04-24 01:05 | 42.40289 | 33.55700 | 34936 ft | 496 kts | 100° |
| 2026-04-24 01:05 | 42.39122 | 33.64847 | 34936 ft | 497 kts | 100° |
| 2026-04-24 01:06 | 42.37939 | 33.74060 | 34938 ft | 498 kts | 100° |
| 2026-04-24 01:06 | 42.36746 | 33.83294 | 34934 ft | 498 kts | 100° |
| 2026-04-24 01:07 | 42.35548 | 33.92528 | 34935 ft | 499 kts | 100° |
| 2026-04-24 01:07 | 42.34342 | 34.01771 | 34933 ft | 499 kts | 100° |
| 2026-04-24 01:08 | 42.33128 | 34.11022 | 34934 ft | 500 kts | 100° |
| 2026-04-24 01:08 | 42.31912 | 34.20222 | 34931 ft | 500 kts | 100° |
| 2026-04-24 01:09 | 42.30682 | 34.29470 | 34935 ft | 501 kts | 100° |
| 2026-04-24 01:09 | 42.29440 | 34.38747 | 34934 ft | 501 kts | 101° |
| 2026-04-24 01:10 | 42.28190 | 34.48012 | 34934 ft | 502 kts | 101° |
| 2026-04-24 01:10 | 42.26929 | 34.57297 | 34933 ft | 502 kts | 101° |
| 2026-04-24 01:11 | 42.25662 | 34.66579 | 34933 ft | 502 kts | 101° |
| 2026-04-24 01:11 | 42.24396 | 34.75792 | 34934 ft | 502 kts | 101° |
| 2026-04-24 01:12 | 42.23112 | 34.85047 | 34936 ft | 502 kts | 101° |
| 2026-04-24 01:12 | 42.21819 | 34.94314 | 34941 ft | 502 kts | 101° |
| 2026-04-24 01:13 | 42.20520 | 35.03567 | 34936 ft | 502 kts | 101° |
| 2026-04-24 01:13 | 42.19212 | 35.12822 | 34937 ft | 502 kts | 102° |
| 2026-04-24 01:14 | 42.17897 | 35.22074 | 34939 ft | 501 kts | 102° |
| 2026-04-24 01:14 | 42.16587 | 35.31238 | 34937 ft | 501 kts | 102° |
| 2026-04-24 01:15 | 42.15261 | 35.40468 | 34938 ft | 501 kts | 102° |
| 2026-04-24 01:15 | 42.13928 | 35.49697 | 34940 ft | 501 kts | 102° |
| 2026-04-24 01:16 | 42.12591 | 35.58910 | 34942 ft | 501 kts | 103° |
| 2026-04-24 01:16 | 42.11245 | 35.68122 | 34946 ft | 501 kts | 103° |
| 2026-04-24 01:17 | 42.09892 | 35.77334 | 34948 ft | 502 kts | 103° |
| 2026-04-24 01:17 | 42.08527 | 35.86569 | 34949 ft | 502 kts | 103° |
| 2026-04-24 01:18 | 42.07157 | 35.95784 | 34950 ft | 502 kts | 103° |
| 2026-04-24 01:18 | 42.05779 | 36.05000 | 34951 ft | 503 kts | 103° |
| 2026-04-24 01:19 | 42.04392 | 36.14223 | 34951 ft | 503 kts | 103° |
| 2026-04-24 01:19 | 42.02997 | 36.23448 | 34951 ft | 503 kts | 104° |
| 2026-04-24 01:20 | 42.01604 | 36.32607 | 34956 ft | 503 kts | 104° |
| 2026-04-24 01:20 | 42.00194 | 36.41824 | 34957 ft | 503 kts | 104° |
| 2026-04-24 01:21 | 41.98775 | 36.51044 | 34959 ft | 503 kts | 104° |
| 2026-04-24 01:21 | 41.97349 | 36.60262 | 34961 ft | 504 kts | 104° |
| 2026-04-24 01:22 | 41.95915 | 36.69482 | 34962 ft | 504 kts | 104° |
| 2026-04-24 01:22 | 41.94471 | 36.78708 | 34964 ft | 504 kts | 104° |
| 2026-04-24 01:23 | 41.93022 | 36.87921 | 34964 ft | 504 kts | 104° |
| 2026-04-24 01:23 | 41.91566 | 36.97140 | 34965 ft | 505 kts | 105° |
| 2026-04-24 01:24 | 41.90343 | 37.06426 | 34957 ft | 508 kts | 92° |
| 2026-04-24 01:24 | 41.90239 | 37.15867 | 34958 ft | 510 kts | 93° |
| 2026-04-24 01:25 | 41.90093 | 37.25400 | 34970 ft | 511 kts | 93° |
| 2026-04-24 01:25 | 41.89944 | 37.34932 | 34967 ft | 511 kts | 93° |
| 2026-04-24 01:26 | 41.89787 | 37.44490 | 34972 ft | 512 kts | 93° |
| 2026-04-24 01:26 | 41.89623 | 37.54056 | 34972 ft | 513 kts | 93° |
| 2026-04-24 01:27 | 41.89450 | 37.63629 | 34972 ft | 513 kts | 93° |
| 2026-04-24 01:27 | 41.89270 | 37.73211 | 34985 ft | 514 kts | 94° |
| 2026-04-24 01:28 | 41.89082 | 37.82748 | 34982 ft | 514 kts | 94° |
| 2026-04-24 01:28 | 41.88885 | 37.92352 | 34973 ft | 515 kts | 94° |
| 2026-04-24 01:29 | 41.88679 | 38.01979 | 34978 ft | 516 kts | 94° |
| 2026-04-24 01:29 | 41.88465 | 38.11605 | 34983 ft | 516 kts | 94° |
| 2026-04-24 01:30 | 41.88243 | 38.21245 | 34980 ft | 517 kts | 94° |
| 2026-04-24 01:30 | 41.88013 | 38.30893 | 34979 ft | 517 kts | 94° |
| 2026-04-24 01:31 | 41.87774 | 38.40546 | 34992 ft | 517 kts | 94° |
| 2026-04-24 01:31 | 41.87528 | 38.50200 | 34987 ft | 518 kts | 95° |
| 2026-04-24 01:32 | 41.87273 | 38.59859 | 34991 ft | 518 kts | 95° |
| 2026-04-24 01:32 | 41.87011 | 38.69484 | 34995 ft | 519 kts | 95° |
| 2026-04-24 01:33 | 41.86739 | 38.79166 | 34998 ft | 519 kts | 95° |
| 2026-04-24 01:33 | 41.86459 | 38.88846 | 34989 ft | 520 kts | 95° |
| 2026-04-24 01:34 | 41.86170 | 38.98542 | 34995 ft | 520 kts | 95° |
| 2026-04-24 01:34 | 41.85874 | 39.08241 | 35001 ft | 521 kts | 95° |
| 2026-04-24 01:35 | 41.85568 | 39.17958 | 35000 ft | 521 kts | 95° |
| 2026-04-24 01:35 | 41.85255 | 39.27668 | 34998 ft | 521 kts | 96° |
| 2026-04-24 01:36 | 41.84938 | 39.37313 | 35014 ft | 522 kts | 96° |
| 2026-04-24 01:36 | 41.84610 | 39.47042 | 35012 ft | 522 kts | 96° |
| 2026-04-24 01:37 | 41.84267 | 39.56776 | 35008 ft | 523 kts | 96° |
| 2026-04-24 01:37 | 41.83920 | 39.66522 | 35009 ft | 523 kts | 96° |
| 2026-04-24 01:38 | 41.83625 | 39.74633 | 35011 ft | 524 kts | 96° |
| 2026-04-24 01:38 | 41.83263 | 39.84399 | 35014 ft | 524 kts | 96° |
| 2026-04-24 01:39 | 41.82892 | 39.94168 | 35022 ft | 524 kts | 96° |
| 2026-04-24 01:39 | 41.82515 | 40.03879 | 35021 ft | 524 kts | 96° |
| 2026-04-24 01:40 | 41.82126 | 40.13657 | 35024 ft | 524 kts | 96° |
| 2026-04-24 01:40 | 41.81729 | 40.23414 | 35022 ft | 524 kts | 96° |
| 2026-04-24 01:41 | 41.81323 | 40.33186 | 35027 ft | 524 kts | 97° |
| 2026-04-24 01:41 | 41.80910 | 40.42952 | 35034 ft | 524 kts | 97° |
| 2026-04-24 01:42 | 41.80491 | 40.52651 | 35035 ft | 524 kts | 97° |
| 2026-04-24 01:42 | 41.80062 | 40.62416 | 35033 ft | 525 kts | 97° |
| 2026-04-24 01:43 | 41.79594 | 40.72167 | 35037 ft | 525 kts | 97° |
| 2026-04-24 01:43 | 41.79117 | 40.81941 | 35040 ft | 526 kts | 97° |
| 2026-04-24 01:44 | 41.78632 | 40.91718 | 35041 ft | 526 kts | 97° |
| 2026-04-24 01:44 | 41.78139 | 41.01506 | 35037 ft | 527 kts | 97° |
| 2026-04-24 01:45 | 41.77637 | 41.11295 | 35047 ft | 527 kts | 97° |
| 2026-04-24 01:45 | 41.77126 | 41.21097 | 35056 ft | 528 kts | 97° |
| 2026-04-24 01:46 | 41.76606 | 41.30909 | 35065 ft | 528 kts | 97° |
| 2026-04-24 01:46 | 41.76077 | 41.40727 | 35068 ft | 529 kts | 97° |
| 2026-04-24 01:47 | 41.75543 | 41.50492 | 35071 ft | 529 kts | 97° |
| 2026-04-24 01:47 | 41.74997 | 41.60315 | 35072 ft | 529 kts | 98° |
| 2026-04-24 01:48 | 41.74442 | 41.70153 | 35070 ft | 529 kts | 98° |
| 2026-04-24 01:48 | 41.73878 | 41.79978 | 35062 ft | 529 kts | 98° |
| 2026-04-24 01:49 | 41.73307 | 41.89813 | 35066 ft | 529 kts | 98° |
| 2026-04-24 01:49 | 41.72733 | 41.99555 | 35060 ft | 528 kts | 98° |
| 2026-04-24 01:50 | 41.72142 | 42.09428 | 35052 ft | 528 kts | 98° |
| 2026-04-24 01:50 | 41.71542 | 42.19227 | 35038 ft | 527 kts | 98° |
| 2026-04-24 01:51 | 41.70945 | 42.28887 | 35036 ft | 527 kts | 98° |
| 2026-04-24 01:51 | 41.70333 | 42.38661 | 35030 ft | 527 kts | 98° |
| 2026-04-24 01:52 | 41.69713 | 42.48419 | 35013 ft | 526 kts | 99° |
| 2026-04-24 01:52 | 41.69086 | 42.58164 | 35001 ft | 525 kts | 99° |
| 2026-04-24 01:53 | 41.68451 | 42.67894 | 34996 ft | 525 kts | 99° |
| 2026-04-24 01:53 | 41.67814 | 42.77547 | 34988 ft | 524 kts | 99° |
| 2026-04-24 01:54 | 41.67163 | 42.87250 | 34982 ft | 523 kts | 99° |
| 2026-04-24 01:54 | 41.66504 | 42.96939 | 34978 ft | 523 kts | 99° |
| 2026-04-24 01:55 | 41.65836 | 43.06630 | 34980 ft | 523 kts | 99° |
| 2026-04-24 01:55 | 41.65160 | 43.16327 | 34979 ft | 523 kts | 99° |
| 2026-04-24 01:56 | 41.64477 | 43.26012 | 34976 ft | 523 kts | 99° |
| 2026-04-24 01:56 | 41.63785 | 43.35695 | 34975 ft | 523 kts | 99° |
| 2026-04-24 01:57 | 41.63085 | 43.45383 | 34958 ft | 523 kts | 99° |
| 2026-04-24 01:57 | 41.62379 | 43.55074 | 34951 ft | 523 kts | 99° |
| 2026-04-24 01:58 | 41.61667 | 43.64756 | 34930 ft | 523 kts | 99° |
| 2026-04-24 01:58 | 41.60947 | 43.74418 | 34912 ft | 523 kts | 99° |
| 2026-04-24 01:59 | 41.60225 | 43.84019 | 34905 ft | 522 kts | 99° |
| 2026-04-24 01:59 | 41.59488 | 43.93687 | 34907 ft | 522 kts | 99° |
| 2026-04-24 02:00 | 41.58746 | 44.03328 | 34893 ft | 522 kts | 100° |
| 2026-04-24 02:00 | 41.57996 | 44.12957 | 34893 ft | 522 kts | 99° |
| 2026-04-24 02:01 | 41.57190 | 44.22581 | 34882 ft | 518 kts | 106° |
| 2026-04-24 02:01 | 41.55072 | 44.31658 | 34857 ft | 513 kts | 113° |
| 2026-04-24 02:02 | 41.52857 | 44.40707 | 34887 ft | 513 kts | 114° |
| 2026-04-24 02:02 | 41.50615 | 44.49744 | 34873 ft | 513 kts | 114° |
| 2026-04-24 02:03 | 41.47237 | 44.63289 | 34877 ft | 511 kts | 114° |
| 2026-04-24 02:03 | 41.45002 | 44.72205 | 34865 ft | 510 kts | 114° |
| 2026-04-24 02:04 | 41.42751 | 44.81153 | 34861 ft | 508 kts | 114° |
| 2026-04-24 02:04 | 41.40498 | 44.90073 | 34849 ft | 507 kts | 114° |
| 2026-04-24 02:05 | 41.38244 | 44.98970 | 34853 ft | 506 kts | 114° |
| 2026-04-24 02:05 | 41.35988 | 45.07838 | 34849 ft | 505 kts | 114° |
| 2026-04-24 02:06 | 41.33722 | 45.16700 | 34846 ft | 505 kts | 114° |
| 2026-04-24 02:06 | 41.31469 | 45.25485 | 34843 ft | 504 kts | 114° |
| 2026-04-24 02:07 | 41.29199 | 45.34302 | 34844 ft | 504 kts | 114° |
| 2026-04-24 02:07 | 41.26920 | 45.43123 | 34836 ft | 504 kts | 114° |
| 2026-04-24 02:08 | 41.24639 | 45.51919 | 34833 ft | 503 kts | 115° |
| 2026-04-24 02:08 | 41.22352 | 45.60712 | 34830 ft | 503 kts | 115° |
| 2026-04-24 02:09 | 41.20052 | 45.69488 | 34835 ft | 503 kts | 115° |
| 2026-04-24 02:09 | 41.17747 | 45.78248 | 34830 ft | 502 kts | 115° |
| 2026-04-24 02:10 | 41.15432 | 45.87011 | 34838 ft | 502 kts | 115° |
| 2026-04-24 02:10 | 41.13132 | 45.95693 | 34833 ft | 502 kts | 115° |
| 2026-04-24 02:11 | 41.10812 | 46.04415 | 34834 ft | 501 kts | 115° |
| 2026-04-24 02:11 | 41.08485 | 46.13131 | 34838 ft | 501 kts | 115° |
| 2026-04-24 02:12 | 41.06156 | 46.21829 | 34838 ft | 500 kts | 115° |
| 2026-04-24 02:12 | 41.03831 | 46.30513 | 34839 ft | 500 kts | 115° |
| 2026-04-24 02:13 | 41.01520 | 46.39178 | 34841 ft | 498 kts | 115° |
| 2026-04-24 02:13 | 40.99206 | 46.47816 | 34834 ft | 497 kts | 115° |
| 2026-04-24 02:14 | 40.96887 | 46.56442 | 34839 ft | 496 kts | 115° |
| 2026-04-24 02:14 | 40.94588 | 46.64965 | 34839 ft | 495 kts | 115° |
| 2026-04-24 02:15 | 40.92268 | 46.73535 | 34836 ft | 494 kts | 115° |
| 2026-04-24 02:15 | 40.90562 | 46.82360 | 34823 ft | 504 kts | 93° |
| 2026-04-24 02:16 | 40.90943 | 46.86974 | 34846 ft | 509 kts | 79° |
| 2026-04-24 02:16 | 40.91734 | 46.91544 | 34835 ft | 511 kts | 79° |
| 2026-04-24 02:16 | 40.93367 | 47.00706 | 34835 ft | 512 kts | 78° |
| 2026-04-24 02:17 | 40.95053 | 47.09874 | 34832 ft | 512 kts | 78° |
| 2026-04-24 02:17 | 40.96732 | 47.19014 | 34833 ft | 512 kts | 78° |
| 2026-04-24 02:18 | 40.98409 | 47.28180 | 34830 ft | 512 kts | 78° |
| 2026-04-24 02:18 | 41.00076 | 47.37338 | 34823 ft | 512 kts | 78° |
| 2026-04-24 02:19 | 41.01739 | 47.46521 | 34818 ft | 513 kts | 78° |
| 2026-04-24 02:19 | 41.03383 | 47.55643 | 34808 ft | 512 kts | 78° |
| 2026-04-24 02:20 | 41.05027 | 47.64810 | 34793 ft | 511 kts | 78° |
| 2026-04-24 02:20 | 41.06659 | 47.73954 | 34800 ft | 509 kts | 78° |
| 2026-04-24 02:21 | 41.08275 | 47.83054 | 34785 ft | 507 kts | 77° |
| 2026-04-24 02:21 | 41.09886 | 47.92160 | 34773 ft | 506 kts | 78° |
| 2026-04-24 02:22 | 41.11790 | 48.01114 | 34773 ft | 504 kts | 70° |
| 2026-04-24 02:22 | 41.14212 | 48.09834 | 34772 ft | 502 kts | 70° |
| 2026-04-24 02:23 | 41.16624 | 48.18518 | 34785 ft | 501 kts | 70° |
| 2026-04-24 02:23 | 41.19030 | 48.27204 | 34783 ft | 501 kts | 70° |
| 2026-04-24 02:24 | 41.21414 | 48.35842 | 34800 ft | 502 kts | 70° |
| 2026-04-24 02:24 | 41.23811 | 48.44556 | 34813 ft | 502 kts | 70° |
| 2026-04-24 02:25 | 41.26204 | 48.53287 | 34827 ft | 503 kts | 71° |
| 2026-04-24 02:25 | 41.28594 | 48.62035 | 34837 ft | 503 kts | 71° |
| 2026-04-24 02:26 | 41.30573 | 48.69306 | 34843 ft | 503 kts | 71° |
| 2026-04-24 02:26 | 41.32951 | 48.78068 | 34854 ft | 504 kts | 71° |
| 2026-04-24 02:27 | 41.35327 | 48.86849 | 34860 ft | 504 kts | 71° |
| 2026-04-24 02:27 | 41.37692 | 48.95635 | 34862 ft | 504 kts | 71° |
| 2026-04-24 02:28 | 41.40053 | 49.04434 | 34863 ft | 505 kts | 71° |
| 2026-04-24 02:28 | 41.42408 | 49.13242 | 34857 ft | 505 kts | 71° |
| 2026-04-24 02:29 | 41.44758 | 49.22064 | 34863 ft | 505 kts | 72° |
| 2026-04-24 02:29 | 41.47106 | 49.30906 | 34858 ft | 506 kts | 72° |
| 2026-04-24 02:30 | 41.49447 | 49.39756 | 34858 ft | 507 kts | 72° |
| 2026-04-24 02:30 | 41.51772 | 49.48579 | 34855 ft | 507 kts | 72° |
| 2026-04-24 02:31 | 41.54109 | 49.57475 | 34862 ft | 508 kts | 72° |
| 2026-04-24 02:31 | 41.56439 | 49.66383 | 34858 ft | 509 kts | 72° |
| 2026-04-24 02:32 | 41.58768 | 49.75315 | 34853 ft | 509 kts | 72° |
| 2026-04-24 02:32 | 41.61094 | 49.84271 | 34855 ft | 510 kts | 72° |
| 2026-04-24 02:33 | 41.63416 | 49.93241 | 34848 ft | 510 kts | 72° |
| 2026-04-24 02:33 | 41.65716 | 50.02163 | 34855 ft | 511 kts | 73° |
| 2026-04-24 02:34 | 41.68030 | 50.11175 | 34849 ft | 512 kts | 73° |
| 2026-04-24 02:34 | 41.70341 | 50.20204 | 34845 ft | 513 kts | 73° |
| 2026-04-24 02:35 | 41.72646 | 50.29248 | 34845 ft | 514 kts | 73° |
| 2026-04-24 02:35 | 41.74937 | 50.38269 | 34844 ft | 515 kts | 73° |
| 2026-04-24 02:36 | 41.77235 | 50.47354 | 34841 ft | 515 kts | 73° |
| 2026-04-24 02:36 | 41.79529 | 50.56455 | 34844 ft | 516 kts | 73° |
| 2026-04-24 02:37 | 41.81819 | 50.65577 | 34838 ft | 516 kts | 73° |
| 2026-04-24 02:37 | 41.84097 | 50.74688 | 34841 ft | 516 kts | 73° |
| 2026-04-24 02:38 | 41.86374 | 50.83829 | 34842 ft | 516 kts | 73° |
| 2026-04-24 02:38 | 41.88627 | 50.92907 | 34837 ft | 516 kts | 73° |
| 2026-04-24 02:39 | 41.90884 | 51.02039 | 34840 ft | 516 kts | 73° |
| 2026-04-24 02:39 | 41.93137 | 51.11189 | 34837 ft | 515 kts | 73° |
| 2026-04-24 02:40 | 41.95380 | 51.20330 | 34839 ft | 515 kts | 73° |
| 2026-04-24 02:40 | 41.97616 | 51.29471 | 34841 ft | 515 kts | 72° |
| 2026-04-24 02:41 | 41.99843 | 51.38612 | 34837 ft | 514 kts | 72° |
| 2026-04-24 02:41 | 42.03051 | 51.47079 | 34839 ft | 508 kts | 45° |
| 2026-04-24 02:42 | 42.08304 | 51.53387 | 34835 ft | 507 kts | 37° |
| 2026-04-24 02:42 | 42.13675 | 51.59536 | 34836 ft | 506 kts | 37° |
| 2026-04-24 02:43 | 42.19053 | 51.65665 | 34846 ft | 506 kts | 37° |
| 2026-04-24 02:43 | 42.24417 | 51.71791 | 34845 ft | 505 kts | 37° |
| 2026-04-24 02:44 | 42.29744 | 51.77887 | 34832 ft | 505 kts | 37° |
| 2026-04-24 02:44 | 42.35095 | 51.84025 | 34835 ft | 504 kts | 37° |
| 2026-04-24 02:45 | 42.40443 | 51.90175 | 34830 ft | 504 kts | 37° |
| 2026-04-24 02:45 | 42.45781 | 51.96327 | 34830 ft | 504 kts | 37° |
| 2026-04-24 02:46 | 42.51114 | 52.02487 | 34832 ft | 503 kts | 37° |
| 2026-04-24 02:46 | 42.56439 | 52.08653 | 34828 ft | 503 kts | 37° |
| 2026-04-24 02:47 | 42.61764 | 52.14832 | 34835 ft | 503 kts | 37° |
| 2026-04-24 02:47 | 42.67077 | 52.21013 | 34829 ft | 502 kts | 37° |
| 2026-04-24 02:48 | 42.72378 | 52.27194 | 34831 ft | 502 kts | 37° |
| 2026-04-24 02:48 | 42.77685 | 52.33396 | 34830 ft | 502 kts | 37° |
| 2026-04-24 02:49 | 42.82946 | 52.39560 | 34827 ft | 502 kts | 37° |
| 2026-04-24 02:49 | 42.88233 | 52.45767 | 34827 ft | 501 kts | 37° |
| 2026-04-24 02:50 | 42.93517 | 52.51986 | 34831 ft | 501 kts | 38° |
| 2026-04-24 02:50 | 42.98791 | 52.58208 | 34827 ft | 500 kts | 38° |
| 2026-04-24 02:51 | 43.04024 | 52.64397 | 34830 ft | 500 kts | 38° |
| 2026-04-24 02:51 | 43.09279 | 52.70624 | 34828 ft | 499 kts | 38° |
| 2026-04-24 02:52 | 43.14527 | 52.76859 | 34828 ft | 499 kts | 38° |
| 2026-04-24 02:52 | 43.19774 | 52.83108 | 34829 ft | 499 kts | 38° |
| 2026-04-24 02:53 | 43.25020 | 52.89370 | 34828 ft | 499 kts | 38° |
| 2026-04-24 02:53 | 43.30221 | 52.95594 | 34828 ft | 499 kts | 38° |
| 2026-04-24 02:54 | 43.35461 | 53.01878 | 34828 ft | 499 kts | 38° |
| 2026-04-24 02:54 | 43.40688 | 53.08163 | 34828 ft | 499 kts | 38° |
| 2026-04-24 02:55 | 43.45909 | 53.14451 | 34826 ft | 499 kts | 38° |
| 2026-04-24 02:55 | 43.51123 | 53.20748 | 34826 ft | 498 kts | 38° |
| 2026-04-24 02:56 | 43.56333 | 53.27053 | 34829 ft | 498 kts | 39° |
| 2026-04-24 02:56 | 43.61532 | 53.33363 | 34834 ft | 497 kts | 39° |
| 2026-04-24 02:57 | 43.66715 | 53.39660 | 34829 ft | 496 kts | 39° |
| 2026-04-24 02:57 | 43.71892 | 53.45966 | 34833 ft | 496 kts | 39° |
| 2026-04-24 02:58 | 43.77030 | 53.52239 | 34831 ft | 495 kts | 38° |
| 2026-04-24 02:58 | 43.82189 | 53.58554 | 34829 ft | 495 kts | 38° |
| 2026-04-24 02:59 | 43.87350 | 53.64885 | 34832 ft | 496 kts | 38° |
| 2026-04-24 02:59 | 43.92511 | 53.71233 | 34833 ft | 496 kts | 38° |
| 2026-04-24 03:00 | 43.97666 | 53.77589 | 34832 ft | 495 kts | 38° |
| 2026-04-24 03:00 | 44.02812 | 53.83950 | 34829 ft | 495 kts | 38° |
| 2026-04-24 03:01 | 44.07953 | 53.90319 | 34831 ft | 495 kts | 38° |
| 2026-04-24 03:01 | 44.13099 | 53.96709 | 34832 ft | 496 kts | 38° |
| 2026-04-24 03:02 | 44.18242 | 54.03112 | 34835 ft | 496 kts | 38° |
| 2026-04-24 03:02 | 44.23389 | 54.09535 | 34833 ft | 496 kts | 38° |
| 2026-04-24 03:03 | 44.28532 | 54.15970 | 34832 ft | 496 kts | 38° |
| 2026-04-24 03:03 | 44.33642 | 54.22379 | 34829 ft | 497 kts | 38° |
| 2026-04-24 03:04 | 44.38781 | 54.28840 | 34831 ft | 497 kts | 38° |
| 2026-04-24 03:04 | 44.43917 | 54.35313 | 34831 ft | 497 kts | 38° |
| 2026-04-24 03:05 | 44.49053 | 54.41802 | 34829 ft | 497 kts | 38° |
| 2026-04-24 03:05 | 44.54184 | 54.48299 | 34830 ft | 497 kts | 38° |
| 2026-04-24 03:06 | 44.59311 | 54.54810 | 34833 ft | 497 kts | 38° |
| 2026-04-24 03:06 | 44.64436 | 54.61329 | 34829 ft | 497 kts | 38° |
| 2026-04-24 03:07 | 44.69563 | 54.67875 | 34834 ft | 497 kts | 38° |
| 2026-04-24 03:07 | 44.74675 | 54.74415 | 34831 ft | 497 kts | 38° |
| 2026-04-24 03:08 | 44.82340 | 54.84252 | 34832 ft | 496 kts | 38° |
| 2026-04-24 03:09 | 44.87443 | 54.90821 | 34828 ft | 496 kts | 39° |
| 2026-04-24 03:09 | 44.92507 | 54.97355 | 34826 ft | 496 kts | 39° |
| 2026-04-24 03:10 | 44.97592 | 55.03934 | 34826 ft | 496 kts | 39° |
| 2026-04-24 03:10 | 45.02673 | 55.10525 | 34825 ft | 495 kts | 39° |
| 2026-04-24 03:11 | 45.07746 | 55.17110 | 34829 ft | 495 kts | 37° |
| 2026-04-24 03:11 | 45.13071 | 55.23243 | 34833 ft | 493 kts | 35° |
| 2026-04-24 03:12 | 45.18371 | 55.29418 | 34831 ft | 493 kts | 36° |
| 2026-04-24 03:12 | 45.23653 | 55.35615 | 34835 ft | 493 kts | 36° |
| 2026-04-24 03:13 | 45.28931 | 55.41823 | 34837 ft | 493 kts | 36° |
| 2026-04-24 03:13 | 45.33319 | 55.46996 | 34837 ft | 493 kts | 36° |
| 2026-04-24 03:14 | 45.38582 | 55.53215 | 34836 ft | 492 kts | 36° |
| 2026-04-24 03:14 | 45.43846 | 55.59451 | 34839 ft | 492 kts | 36° |
| 2026-04-24 03:15 | 45.49103 | 55.65694 | 34839 ft | 492 kts | 36° |
| 2026-04-24 03:15 | 45.54353 | 55.71944 | 34837 ft | 492 kts | 36° |
| 2026-04-24 03:16 | 45.59569 | 55.78170 | 34839 ft | 492 kts | 36° |
| 2026-04-24 03:16 | 45.64818 | 55.84451 | 34844 ft | 492 kts | 36° |
| 2026-04-24 03:17 | 45.70067 | 55.90747 | 34841 ft | 492 kts | 36° |
| 2026-04-24 03:17 | 45.75312 | 55.97055 | 34845 ft | 492 kts | 36° |
| 2026-04-24 03:18 | 45.80545 | 56.03365 | 34846 ft | 491 kts | 36° |
| 2026-04-24 03:18 | 45.85777 | 56.09689 | 34846 ft | 491 kts | 36° |
| 2026-04-24 03:19 | 45.90995 | 56.16012 | 34843 ft | 491 kts | 36° |
| 2026-04-24 03:19 | 45.96187 | 56.22320 | 34848 ft | 490 kts | 36° |
| 2026-04-24 03:20 | 46.01389 | 56.28657 | 34847 ft | 490 kts | 36° |
| 2026-04-24 03:20 | 46.06569 | 56.34982 | 34854 ft | 490 kts | 36° |
| 2026-04-24 03:21 | 46.11767 | 56.41345 | 34851 ft | 490 kts | 36° |
| 2026-04-24 03:21 | 46.16958 | 56.47718 | 34853 ft | 490 kts | 37° |
| 2026-04-24 03:22 | 46.22144 | 56.54100 | 34855 ft | 490 kts | 37° |
| 2026-04-24 03:22 | 46.27321 | 56.60487 | 34860 ft | 489 kts | 37° |
| 2026-04-24 03:23 | 46.32492 | 56.66883 | 34857 ft | 489 kts | 37° |
| 2026-04-24 03:23 | 46.37661 | 56.73291 | 34854 ft | 489 kts | 37° |
| 2026-04-24 03:24 | 46.42822 | 56.79704 | 34865 ft | 489 kts | 37° |
| 2026-04-24 03:24 | 46.47883 | 56.86290 | 34846 ft | 492 kts | 48° |
| 2026-04-24 03:25 | 46.51560 | 56.94725 | 34860 ft | 496 kts | 56° |
| 2026-04-24 03:25 | 46.55131 | 57.03312 | 34867 ft | 496 kts | 57° |
| 2026-04-24 03:26 | 46.58647 | 57.11939 | 34868 ft | 496 kts | 57° |
| 2026-04-24 03:26 | 46.62148 | 57.20568 | 34862 ft | 496 kts | 57° |
| 2026-04-24 03:27 | 46.65624 | 57.29163 | 34877 ft | 495 kts | 57° |
| 2026-04-24 03:27 | 46.69109 | 57.37807 | 34886 ft | 495 kts | 57° |
| 2026-04-24 03:28 | 46.72583 | 57.46449 | 34882 ft | 494 kts | 57° |
| 2026-04-24 03:28 | 46.76053 | 57.55113 | 34890 ft | 494 kts | 57° |
| 2026-04-24 03:29 | 46.79511 | 57.63770 | 34886 ft | 493 kts | 58° |
| 2026-04-24 03:29 | 46.82958 | 57.72430 | 34888 ft | 493 kts | 58° |
| 2026-04-24 03:30 | 46.86396 | 57.81094 | 34896 ft | 492 kts | 58° |
| 2026-04-24 03:30 | 46.89826 | 57.89764 | 34903 ft | 492 kts | 58° |
| 2026-04-24 03:31 | 46.93239 | 57.98420 | 34910 ft | 491 kts | 58° |
| 2026-04-24 03:31 | 46.96623 | 58.07030 | 34905 ft | 491 kts | 58° |
| 2026-04-24 03:32 | 47.00021 | 58.15702 | 34916 ft | 490 kts | 58° |
| 2026-04-24 03:32 | 47.03411 | 58.24383 | 34918 ft | 490 kts | 58° |
| 2026-04-24 03:33 | 47.06789 | 58.33060 | 34908 ft | 490 kts | 58° |
| 2026-04-24 03:33 | 47.10164 | 58.41757 | 34909 ft | 490 kts | 58° |
| 2026-04-24 03:34 | 47.13526 | 58.50450 | 34928 ft | 490 kts | 58° |
| 2026-04-24 03:34 | 47.16884 | 58.59158 | 34922 ft | 489 kts | 58° |
| 2026-04-24 03:35 | 47.20235 | 58.67877 | 34920 ft | 489 kts | 58° |
| 2026-04-24 03:35 | 47.23552 | 58.76537 | 34916 ft | 489 kts | 59° |
| 2026-04-24 03:36 | 47.26887 | 58.85271 | 34919 ft | 489 kts | 59° |
| 2026-04-24 03:36 | 47.30210 | 58.94002 | 34928 ft | 488 kts | 59° |
| 2026-04-24 03:37 | 47.33524 | 59.02737 | 34925 ft | 488 kts | 59° |
| 2026-04-24 03:37 | 47.36831 | 59.11483 | 34928 ft | 488 kts | 59° |
| 2026-04-24 03:38 | 47.40133 | 59.20245 | 34927 ft | 488 kts | 59° |
| 2026-04-24 03:38 | 47.43404 | 59.28952 | 34927 ft | 487 kts | 59° |
| 2026-04-24 03:39 | 47.46693 | 59.37736 | 34932 ft | 487 kts | 59° |
| 2026-04-24 03:39 | 47.49963 | 59.46496 | 34940 ft | 487 kts | 59° |
| 2026-04-24 03:40 | 47.53232 | 59.55285 | 34939 ft | 487 kts | 59° |
| 2026-04-24 03:40 | 47.56491 | 59.64076 | 34936 ft | 487 kts | 59° |
| 2026-04-24 03:41 | 47.59747 | 59.72886 | 34942 ft | 488 kts | 60° |
| 2026-04-24 03:41 | 47.62995 | 59.81703 | 34946 ft | 488 kts | 60° |
| 2026-04-24 03:42 | 47.66241 | 59.90538 | 34939 ft | 488 kts | 60° |
| 2026-04-24 03:42 | 47.69483 | 59.99389 | 34946 ft | 488 kts | 60° |
| 2026-04-24 03:43 | 47.72716 | 60.08243 | 34940 ft | 488 kts | 60° |
| 2026-04-24 03:43 | 47.75912 | 60.17069 | 34952 ft | 488 kts | 60° |
| 2026-04-24 03:44 | 47.79129 | 60.25957 | 34955 ft | 488 kts | 60° |
| 2026-04-24 03:44 | 47.82349 | 60.34884 | 34951 ft | 488 kts | 60° |
| 2026-04-24 03:45 | 47.85556 | 60.43801 | 34952 ft | 488 kts | 60° |
| 2026-04-24 03:45 | 47.88761 | 60.52745 | 34953 ft | 489 kts | 60° |
| 2026-04-24 03:46 | 47.91953 | 60.61683 | 34952 ft | 489 kts | 61° |
| 2026-04-24 03:46 | 47.95122 | 60.70586 | 34965 ft | 489 kts | 61° |
| 2026-04-24 03:47 | 47.98306 | 60.79563 | 34963 ft | 489 kts | 61° |
| 2026-04-24 03:47 | 48.01479 | 60.88537 | 34967 ft | 489 kts | 61° |
| 2026-04-24 03:48 | 48.04649 | 60.97535 | 34961 ft | 489 kts | 61° |
| 2026-04-24 03:48 | 48.07814 | 61.06550 | 34971 ft | 489 kts | 62° |
| 2026-04-24 03:49 | 48.10969 | 61.15568 | 34961 ft | 489 kts | 62° |
| 2026-04-24 03:49 | 48.14119 | 61.24603 | 34969 ft | 490 kts | 62° |
| 2026-04-24 03:50 | 48.17263 | 61.33650 | 34971 ft | 490 kts | 62° |
| 2026-04-24 03:50 | 48.20403 | 61.42720 | 34967 ft | 490 kts | 62° |
| 2026-04-24 03:51 | 48.23535 | 61.51799 | 34970 ft | 490 kts | 62° |
| 2026-04-24 03:51 | 48.26660 | 61.60886 | 34975 ft | 490 kts | 62° |
| 2026-04-24 03:52 | 48.29782 | 61.69998 | 34966 ft | 490 kts | 62° |
| 2026-04-24 03:52 | 48.32874 | 61.79054 | 34968 ft | 490 kts | 63° |
| 2026-04-24 03:53 | 48.35978 | 61.88178 | 34969 ft | 491 kts | 63° |
| 2026-04-24 03:53 | 48.39079 | 61.97326 | 34979 ft | 491 kts | 63° |
| 2026-04-24 03:54 | 48.42173 | 62.06488 | 34974 ft | 491 kts | 63° |
| 2026-04-24 03:54 | 48.45266 | 62.15678 | 34977 ft | 492 kts | 63° |
| 2026-04-24 03:55 | 48.48353 | 62.24882 | 34972 ft | 492 kts | 63° |
| 2026-04-24 03:55 | 48.51433 | 62.34099 | 34973 ft | 492 kts | 63° |
| 2026-04-24 03:56 | 48.54511 | 62.43340 | 34977 ft | 493 kts | 63° |
| 2026-04-24 03:56 | 48.57584 | 62.52594 | 34992 ft | 493 kts | 63° |
| 2026-04-24 03:57 | 48.60632 | 62.61802 | 34989 ft | 493 kts | 64° |
| 2026-04-24 03:57 | 48.63580 | 62.71175 | 34993 ft | 493 kts | 66° |
| 2026-04-24 03:58 | 48.66403 | 62.80634 | 34979 ft | 494 kts | 66° |
| 2026-04-24 03:58 | 48.69245 | 62.90101 | 34988 ft | 494 kts | 66° |
| 2026-04-24 03:59 | 48.72083 | 62.99586 | 34988 ft | 494 kts | 66° |
| 2026-04-24 03:59 | 48.74907 | 63.09063 | 34993 ft | 494 kts | 66° |
| 2026-04-24 04:00 | 48.77254 | 63.16963 | 34988 ft | 494 kts | 66° |
| 2026-04-24 04:00 | 48.80521 | 63.28008 | 34985 ft | 494 kts | 66° |
| 2026-04-24 04:01 | 48.83328 | 63.37537 | 34987 ft | 494 kts | 66° |
| 2026-04-24 04:01 | 48.85672 | 63.45521 | 34985 ft | 494 kts | 67° |
| 2026-04-24 04:02 | 48.88530 | 63.54996 | 34978 ft | 494 kts | 62° |
| 2026-04-24 04:02 | 48.91707 | 63.64271 | 34991 ft | 494 kts | 63° |
| 2026-04-24 04:03 | 48.94817 | 63.73587 | 34994 ft | 494 kts | 64° |
| 2026-04-24 04:03 | 48.97895 | 63.82859 | 34997 ft | 494 kts | 64° |
| 2026-04-24 04:04 | 49.00988 | 63.92209 | 34990 ft | 494 kts | 64° |
| 2026-04-24 04:04 | 49.04072 | 64.01570 | 34988 ft | 494 kts | 64° |
| 2026-04-24 04:05 | 49.07145 | 64.10931 | 35000 ft | 494 kts | 64° |
| 2026-04-24 04:05 | 49.10212 | 64.20306 | 34998 ft | 494 kts | 64° |
| 2026-04-24 04:06 | 49.13276 | 64.29709 | 35006 ft | 494 kts | 64° |
| 2026-04-24 04:06 | 49.16316 | 64.39077 | 35004 ft | 495 kts | 64° |
| 2026-04-24 04:07 | 49.19365 | 64.48501 | 35003 ft | 495 kts | 64° |
| 2026-04-24 04:07 | 49.22405 | 64.57938 | 35000 ft | 495 kts | 64° |
| 2026-04-24 04:08 | 49.25443 | 64.67400 | 35006 ft | 495 kts | 64° |
| 2026-04-24 04:08 | 49.28472 | 64.76871 | 34999 ft | 495 kts | 65° |
| 2026-04-24 04:09 | 49.31496 | 64.86358 | 35006 ft | 495 kts | 65° |
| 2026-04-24 04:09 | 49.34472 | 64.95798 | 35005 ft | 495 kts | 66° |
| 2026-04-24 04:10 | 49.37302 | 65.05440 | 35019 ft | 495 kts | 66° |
| 2026-04-24 04:10 | 49.40143 | 65.15057 | 35014 ft | 495 kts | 66° |
| 2026-04-24 04:11 | 49.44401 | 65.29523 | 35027 ft | 495 kts | 66° |
| 2026-04-24 04:11 | 49.47229 | 65.39176 | 35019 ft | 495 kts | 67° |
| 2026-04-24 04:12 | 49.50047 | 65.48835 | 35017 ft | 495 kts | 67° |
| 2026-04-24 04:12 | 49.52859 | 65.58514 | 35011 ft | 495 kts | 67° |
| 2026-04-24 04:13 | 49.55664 | 65.68205 | 35017 ft | 496 kts | 67° |
| 2026-04-24 04:13 | 49.58448 | 65.77865 | 35017 ft | 496 kts | 67° |
| 2026-04-24 04:14 | 49.61241 | 65.87595 | 35017 ft | 496 kts | 67° |
| 2026-04-24 04:14 | 49.64029 | 65.97345 | 35012 ft | 496 kts | 67° |
| 2026-04-24 04:15 | 49.66811 | 66.07115 | 35015 ft | 496 kts | 67° |
| 2026-04-24 04:15 | 49.69580 | 66.16880 | 35014 ft | 496 kts | 67° |
| 2026-04-24 04:16 | 49.72325 | 66.26593 | 35027 ft | 496 kts | 68° |
| 2026-04-24 04:16 | 49.75126 | 66.36367 | 35017 ft | 497 kts | 66° |
| 2026-04-24 04:17 | 49.77956 | 66.46121 | 35025 ft | 497 kts | 67° |
| 2026-04-24 04:17 | 49.80775 | 66.55898 | 35028 ft | 497 kts | 67° |
| 2026-04-24 04:18 | 49.83585 | 66.65680 | 35034 ft | 497 kts | 67° |
| 2026-04-24 04:18 | 49.86388 | 66.75480 | 35024 ft | 498 kts | 67° |
| 2026-04-24 04:19 | 49.89187 | 66.85309 | 35027 ft | 498 kts | 67° |
| 2026-04-24 04:19 | 49.91977 | 66.95143 | 35039 ft | 498 kts | 67° |
| 2026-04-24 04:20 | 49.94744 | 67.04939 | 35031 ft | 498 kts | 67° |
| 2026-04-24 04:20 | 49.97351 | 67.14906 | 35040 ft | 497 kts | 73° |
| 2026-04-24 04:21 | 49.99596 | 67.25079 | 35033 ft | 498 kts | 72° |
| 2026-04-24 04:21 | 50.01900 | 67.35237 | 35034 ft | 498 kts | 72° |
| 2026-04-24 04:22 | 50.04203 | 67.45396 | 35038 ft | 499 kts | 72° |
| 2026-04-24 04:22 | 50.06503 | 67.55586 | 35045 ft | 499 kts | 72° |
| 2026-04-24 04:23 | 50.08791 | 67.65779 | 35039 ft | 499 kts | 72° |
| 2026-04-24 04:23 | 50.11077 | 67.76009 | 35032 ft | 499 kts | 72° |
| 2026-04-24 04:24 | 50.13338 | 67.86176 | 35037 ft | 500 kts | 72° |
| 2026-04-24 04:24 | 50.15608 | 67.96435 | 35043 ft | 500 kts | 73° |
| 2026-04-24 04:25 | 50.17871 | 68.06709 | 35044 ft | 501 kts | 73° |
| 2026-04-24 04:25 | 50.20127 | 68.17007 | 35048 ft | 501 kts | 73° |
| 2026-04-24 04:26 | 50.22397 | 68.27304 | 35040 ft | 502 kts | 70° |
| 2026-04-24 04:26 | 50.24963 | 68.37468 | 35054 ft | 503 kts | 70° |
| 2026-04-24 04:27 | 50.27476 | 68.47675 | 35059 ft | 503 kts | 71° |
| 2026-04-24 04:27 | 50.29983 | 68.57916 | 35056 ft | 504 kts | 71° |
| 2026-04-24 04:28 | 50.32479 | 68.68166 | 35054 ft | 504 kts | 71° |
| 2026-04-24 04:28 | 50.34971 | 68.78445 | 35065 ft | 505 kts | 71° |
| 2026-04-24 04:29 | 50.37454 | 68.88736 | 35057 ft | 505 kts | 71° |
| 2026-04-24 04:29 | 50.39912 | 68.98971 | 35063 ft | 506 kts | 71° |
| 2026-04-24 04:30 | 50.42386 | 69.09320 | 35062 ft | 506 kts | 71° |
| 2026-04-24 04:30 | 50.44850 | 69.19669 | 35065 ft | 506 kts | 72° |
| 2026-04-24 04:31 | 50.47308 | 69.30021 | 35067 ft | 506 kts | 72° |
| 2026-04-24 04:31 | 50.49762 | 69.40391 | 35070 ft | 507 kts | 72° |
| 2026-04-24 04:32 | 50.52208 | 69.50774 | 35064 ft | 507 kts | 72° |
| 2026-04-24 04:32 | 50.54644 | 69.61169 | 35064 ft | 507 kts | 72° |
| 2026-04-24 04:33 | 50.57073 | 69.71581 | 35067 ft | 507 kts | 72° |
| 2026-04-24 04:33 | 50.59475 | 69.81933 | 35065 ft | 507 kts | 72° |
| 2026-04-24 04:34 | 50.61886 | 69.92369 | 35060 ft | 507 kts | 72° |
| 2026-04-24 04:34 | 50.64286 | 70.02811 | 35061 ft | 507 kts | 72° |
| 2026-04-24 04:35 | 50.66671 | 70.13234 | 34483 ft | 505 kts | 73° |
| 2026-04-24 04:35 | 50.67873 | 70.18500 | 33409 ft | 511 kts | 73° |
| 2026-04-24 04:35 | 50.69175 | 70.23676 | 32828 ft | 506 kts | 70° |
| 2026-04-24 04:36 | 50.70523 | 70.28815 | 32006 ft | 506 kts | 71° |
| 2026-04-24 04:36 | 50.71851 | 70.33963 | 31174 ft | 507 kts | 71° |
| 2026-04-24 04:36 | 50.73173 | 70.39122 | 30334 ft | 508 kts | 71° |
| 2026-04-24 04:36 | 50.74497 | 70.44300 | 29363 ft | 510 kts | 71° |
| 2026-04-24 04:37 | 50.75824 | 70.49504 | 28332 ft | 511 kts | 70° |
| 2026-04-24 04:37 | 50.77152 | 70.54726 | 27348 ft | 512 kts | 70° |
| 2026-04-24 04:37 | 50.78473 | 70.59932 | 26592 ft | 509 kts | 70° |
| 2026-04-24 04:37 | 50.79781 | 70.65097 | 25888 ft | 504 kts | 70° |
| 2026-04-24 04:38 | 50.81077 | 70.70227 | 25212 ft | 500 kts | 70° |
| 2026-04-24 04:38 | 50.82358 | 70.75310 | 24562 ft | 496 kts | 70° |
| 2026-04-24 04:38 | 50.83628 | 70.80360 | 23940 ft | 491 kts | 70° |
| 2026-04-24 04:38 | 50.84883 | 70.85364 | 23287 ft | 487 kts | 70° |
| 2026-04-24 04:39 | 50.86125 | 70.90335 | 22437 ft | 481 kts | 69° |
| 2026-04-24 04:39 | 50.87349 | 70.95228 | 21829 ft | 475 kts | 69° |
| 2026-04-24 04:39 | 50.88537 | 70.99989 | 21241 ft | 468 kts | 69° |
| 2026-04-24 04:39 | 50.89860 | 71.04658 | 20679 ft | 462 kts | 58° |
| 2026-04-24 04:40 | 50.91870 | 71.08538 | 20108 ft | 453 kts | 39° |
| 2026-04-24 04:40 | 50.94442 | 71.11203 | 19310 ft | 447 kts | 19° |
| 2026-04-24 04:40 | 50.97328 | 71.12908 | 18815 ft | 439 kts | 17° |
| 2026-04-24 04:40 | 51.00163 | 71.14629 | 18344 ft | 433 kts | 17° |
| 2026-04-24 04:41 | 51.02956 | 71.16344 | 17818 ft | 427 kts | 17° |
| 2026-04-24 04:41 | 51.05728 | 71.17914 | 17286 ft | 420 kts | 14° |
| 2026-04-24 04:41 | 51.08492 | 71.19337 | 16848 ft | 414 kts | 14° |
| 2026-04-24 04:41 | 51.11218 | 71.20763 | 16408 ft | 409 kts | 14° |
| 2026-04-24 04:42 | 51.13907 | 71.22181 | 15963 ft | 404 kts | 14° |
| 2026-04-24 04:42 | 51.16563 | 71.23586 | 15516 ft | 400 kts | 14° |
| 2026-04-24 04:42 | 51.19186 | 71.24970 | 15129 ft | 394 kts | 13° |
| 2026-04-24 04:42 | 51.21792 | 71.25580 | 15109 ft | 367 kts | 352° |
| 2026-04-24 04:43 | 51.24209 | 71.24791 | 15096 ft | 348 kts | 333° |
| 2026-04-24 04:43 | 51.26398 | 71.23306 | 15064 ft | 346 kts | 330° |
| 2026-04-24 04:43 | 51.28592 | 71.21748 | 15050 ft | 345 kts | 330° |
| 2026-04-24 04:43 | 51.30809 | 71.20277 | 15034 ft | 349 kts | 339° |
| 2026-04-24 04:44 | 51.33258 | 71.19894 | 15040 ft | 360 kts | 356° |
| 2026-04-24 04:44 | 51.35766 | 71.19998 | 15036 ft | 361 kts | 356° |
| 2026-04-24 04:44 | 51.38274 | 71.20088 | 15034 ft | 361 kts | 356° |
| 2026-04-24 04:44 | 51.40784 | 71.20357 | 14864 ft | 366 kts | 7° |
| 2026-04-24 04:45 | 51.43161 | 71.21883 | 14437 ft | 375 kts | 30° |
| 2026-04-24 04:45 | 51.45036 | 71.24796 | 14017 ft | 379 kts | 54° |
| 2026-04-24 04:45 | 51.46105 | 71.28633 | 13550 ft | 379 kts | 78° |
| 2026-04-24 04:45 | 51.46246 | 71.32805 | 13053 ft | 373 kts | 100° |
| 2026-04-24 04:46 | 51.45521 | 71.36669 | 12596 ft | 353 kts | 121° |
| 2026-04-24 04:46 | 51.44136 | 71.39754 | 12181 ft | 331 kts | 141° |
| 2026-04-24 04:46 | 51.42374 | 71.41956 | 11781 ft | 314 kts | 150° |
| 2026-04-24 04:46 | 51.40790 | 71.44300 | 11398 ft | 310 kts | 134° |
| 2026-04-24 04:47 | 51.39416 | 71.46900 | 11014 ft | 300 kts | 135° |
| 2026-04-24 04:47 | 51.38063 | 71.49385 | 10651 ft | 291 kts | 136° |
| 2026-04-24 04:47 | 51.36740 | 71.51789 | 10302 ft | 286 kts | 136° |
| 2026-04-24 04:47 | 51.35389 | 71.54128 | 9945 ft | 287 kts | 140° |
| 2026-04-24 04:48 | 51.34435 | 71.55601 | 9627 ft | 290 kts | 140° |
| 2026-04-24 04:48 | 51.32981 | 71.57851 | 9190 ft | 292 kts | 140° |
| 2026-04-24 04:48 | 51.31521 | 71.60123 | 8782 ft | 294 kts | 140° |
| 2026-04-24 04:48 | 51.29593 | 71.63130 | 8198 ft | 288 kts | 140° |
| 2026-04-24 04:49 | 51.28635 | 71.64626 | 7925 ft | 283 kts | 140° |
| 2026-04-24 04:49 | 51.27253 | 71.66838 | 7494 ft | 279 kts | 139° |
| 2026-04-24 04:49 | 51.25897 | 71.69023 | 7075 ft | 274 kts | 139° |
| 2026-04-24 04:49 | 51.24566 | 71.71155 | 6704 ft | 268 kts | 139° |
| 2026-04-24 04:50 | 51.23236 | 71.73184 | 6320 ft | 259 kts | 148° |
| 2026-04-24 04:50 | 51.21640 | 71.74292 | 5842 ft | 247 kts | 176° |
| 2026-04-24 04:50 | 51.20002 | 71.74104 | 5559 ft | 230 kts | 203° |
| 2026-04-24 04:50 | 51.18709 | 71.72771 | 5292 ft | 219 kts | 229° |
| 2026-04-24 04:51 | 51.17726 | 71.70959 | 5070 ft | 215 kts | 229° |
| 2026-04-24 04:51 | 51.16704 | 71.69267 | 4880 ft | 207 kts | 226° |
| 2026-04-24 04:51 | 51.15698 | 71.67683 | 4588 ft | 200 kts | 225° |
| 2026-04-24 04:51 | 51.14724 | 71.66154 | 4351 ft | 193 kts | 226° |
| 2026-04-24 04:52 | 51.13774 | 71.64661 | 4087 ft | 191 kts | 226° |
| 2026-04-24 04:52 | 51.12836 | 71.63186 | 3843 ft | 189 kts | 225° |
| 2026-04-24 04:52 | 51.11918 | 71.61749 | 3576 ft | 181 kts | 225° |
| 2026-04-24 04:52 | 51.11076 | 71.60419 | 3359 ft | 162 kts | 224° |
| 2026-04-24 04:53 | 51.10314 | 71.59217 | 3131 ft | 147 kts | 225° |
| 2026-04-24 04:53 | 51.09585 | 71.58079 | 2973 ft | 147 kts | 224° |
| 2026-04-24 04:53 | 51.08875 | 71.56976 | 2824 ft | 138 kts | 224° |
| 2026-04-24 04:53 | 51.08202 | 71.55923 | 2564 ft | 133 kts | 225° |
| 2026-04-24 04:54 | 51.07547 | 71.54893 | 2375 ft | 132 kts | 225° |
| 2026-04-24 04:54 | 51.06890 | 71.53864 | 2190 ft | 133 kts | 224° |
| 2026-04-24 04:54 | 51.06223 | 71.52808 | 1947 ft | 137 kts | 223° |
| 2026-04-24 04:54 | 51.05558 | 71.51752 | 1791 ft | 136 kts | 222° |
| 2026-04-24 04:55 | 51.04858 | 71.50673 | 1612 ft | 144 kts | 221° |
| 2026-04-24 04:55 | 51.04138 | 71.49583 | 1421 ft | 141 kts | 223° |
| 2026-04-24 04:55 | 51.03456 | 71.48500 | 1214 ft | 135 kts | 224° |
| 2026-04-24 04:55 | 51.02847 | 71.47544 | 1168 ft | 101 kts | 225° |
| 2026-04-24 04:56 | 51.02533 | 71.47056 | 1169 ft | 14 kts | 224° |
| 2026-04-24 04:56 | 51.02505 | 71.46946 | 1170 ft | 5 kts | 298° |
| 2026-04-24 04:56 | 51.02532 | 71.46902 | 1167 ft | 8 kts | 316° |
| 2026-04-24 04:56 | 51.02582 | 71.46821 | 1166 ft | 12 kts | 313° |
| 2026-04-24 04:57 | 51.02635 | 71.46737 | 1164 ft | 11 kts | 315° |
| 2026-04-24 04:57 | 51.02689 | 71.46650 | 1166 ft | 11 kts | 314° |
| 2026-04-24 04:57 | 51.02710 | 71.46624 | 1164 ft | 5 kts | 332° |
| 2026-04-24 04:57 | 51.02745 | 71.46633 | 1164 ft | 0 kts | 33° |
| 2026-04-24 04:58 | 51.02749 | 71.46638 | 1165 ft | 1 kts | 44° |
| 2026-04-24 04:58 | 51.02762 | 71.46654 | 1166 ft | 1 kts | 22° |
| 2026-04-24 04:58 | 51.02775 | 71.46652 | 1164 ft | 3 kts | 346° |
| 2026-04-24 04:58 | 51.02784 | 71.46637 | 1166 ft | 4 kts | 307° |
| 2026-04-24 04:59 | 51.02795 | 71.46615 | 1164 ft | 2 kts | 311° |
| 2026-04-24 04:59 | 51.02812 | 71.46587 | 1165 ft | 5 kts | 315° |
| 2026-04-24 04:59 | 51.02825 | 71.46567 | 1165 ft | 2 kts | 314° |
| 2026-04-24 04:59 | 51.02836 | 71.46549 | 1165 ft | 0 kts | 314° |